createdAt,value
2022-08-19T00:03:20.902Z,19.79
2022-08-19T00:13:22.508Z,19.69
2022-08-19T00:23:24.137Z,19.47
2022-08-19T00:33:26.234Z,19.45
2022-08-19T00:43:28.423Z,19.47
2022-08-19T00:53:31.382Z,19.26
2022-08-19T01:03:57.726Z,19.14
2022-08-19T01:13:55.029Z,19.01
2022-08-19T01:23:56.798Z,18.90
2022-08-19T01:33:58.672Z,18.85
2022-08-19T01:44:13.898Z,18.89
2022-08-19T01:54:27.277Z,18.95
2022-08-19T02:04:29.559Z,18.85
2022-08-19T02:14:31.192Z,18.86
2022-08-19T02:24:32.777Z,18.87
2022-08-19T02:34:35.045Z,18.72
2022-08-19T02:44:36.699Z,18.67
2022-08-19T02:54:39.398Z,18.63
2022-08-19T03:04:41.110Z,18.64
2022-08-19T03:14:42.657Z,18.62
2022-08-19T03:24:44.993Z,18.72
2022-08-19T03:34:46.594Z,18.77
2022-08-19T03:44:48.407Z,18.76
2022-08-19T03:54:50.071Z,19.14
2022-08-19T04:04:54.221Z,19.48
2022-08-19T04:14:55.818Z,19.71
2022-08-19T04:24:57.402Z,19.94
2022-08-19T04:35:02.563Z,20.35
2022-08-19T04:45:18.235Z,20.72
2022-08-19T04:55:19.872Z,21.33
2022-08-19T05:05:21.958Z,21.83
2022-08-19T05:15:23.544Z,22.48
2022-08-19T05:25:25.636Z,22.81
2022-08-19T05:35:27.230Z,23.50
2022-08-19T05:45:29.018Z,23.85
2022-08-19T05:55:30.728Z,24.32
2022-08-19T06:05:32.718Z,24.89
2022-08-19T06:15:47.979Z,25.65
2022-08-19T06:25:49.567Z,26.10
2022-08-19T06:35:51.541Z,26.51
2022-08-19T06:45:53.430Z,27.02
2022-08-19T06:56:03.215Z,27.73
2022-08-19T07:06:09.906Z,27.55
2022-08-19T07:16:28.850Z,27.75
2022-08-19T07:26:33.241Z,27.93
2022-08-19T07:36:36.356Z,28.46
2022-08-19T07:46:39.166Z,28.23
2022-08-19T07:56:40.869Z,28.94
2022-08-19T08:07:01.771Z,29.80
2022-08-19T08:17:03.866Z,29.98
2022-08-19T08:27:12.658Z,30.12
2022-08-19T08:37:16.032Z,30.41
2022-08-19T08:47:19.739Z,30.53
2022-08-19T08:57:40.973Z,30.94
2022-08-19T09:08:06.778Z,30.80
2022-08-19T09:18:09.462Z,31.49
2022-08-19T09:28:27.015Z,31.69
2022-08-19T09:38:29.639Z,31.70
2022-08-19T09:48:33.122Z,30.85
2022-08-19T09:58:36.006Z,30.86
2022-08-19T10:08:38.035Z,31.35
2022-08-19T10:18:44.758Z,30.85
2022-08-19T10:28:52.044Z,30.00
2022-08-19T10:38:59.728Z,30.30
2022-08-19T10:49:02.589Z,32.67
2022-08-19T10:59:05.332Z,33.51
2022-08-19T11:09:07.052Z,31.50
2022-08-19T11:19:09.692Z,31.00
2022-08-19T11:29:13.686Z,30.06
2022-08-19T11:39:16.358Z,29.33
2022-08-19T11:49:19.895Z,29.20
2022-08-19T11:59:21.556Z,29.79
2022-08-19T12:09:23.269Z,32.15
2022-08-19T12:19:25.841Z,30.14
2022-08-19T12:29:30.445Z,28.69
2022-08-19T12:39:35.549Z,28.21
2022-08-19T12:49:52.286Z,28.50
2022-08-19T12:59:56.821Z,28.76
2022-08-19T13:09:58.490Z,28.77
2022-08-19T13:20:00.638Z,28.32
2022-08-19T13:30:21.649Z,27.93
2022-08-19T13:40:25.062Z,26.98
2022-08-19T13:50:29.813Z,26.33
2022-08-19T14:00:34.845Z,26.18
2022-08-19T14:10:36.407Z,26.07
2022-08-19T14:20:38.243Z,26.11
2022-08-19T14:30:39.863Z,26.00
2022-08-19T14:40:43.041Z,25.86
2022-08-19T14:50:45.476Z,25.68
2022-08-19T15:00:48.903Z,25.39
2022-08-19T15:10:50.685Z,24.69
2022-08-19T15:20:52.373Z,24.47
2022-08-19T15:30:54.130Z,24.41
2022-08-19T15:41:15.757Z,24.06
2022-08-19T15:51:17.713Z,23.82
2022-08-19T16:01:31.256Z,23.65
2022-08-19T16:11:39.639Z,23.51
2022-08-19T16:21:46.052Z,23.23
2022-08-19T16:31:47.668Z,22.96
2022-08-19T16:41:49.388Z,22.79
2022-08-19T16:51:51.105Z,22.26
2022-08-19T17:01:52.728Z,22.09
2022-08-19T17:11:54.668Z,22.08
2022-08-19T17:21:57.490Z,22.15
2022-08-19T17:31:59.890Z,22.04
2022-08-19T17:42:02.603Z,22.07
2022-08-19T17:52:09.850Z,21.99
2022-08-19T18:02:12.114Z,21.86
2022-08-19T18:12:15.796Z,21.73
2022-08-19T18:22:31.656Z,21.49
2022-08-19T18:32:38.207Z,21.33
2022-08-19T18:43:02.306Z,21.23
2022-08-19T18:53:05.399Z,20.95
2022-08-19T19:03:06.981Z,20.71
2022-08-19T19:13:08.635Z,20.90
2022-08-19T19:23:10.324Z,20.92
2022-08-19T19:33:12.075Z,20.84
2022-08-19T19:43:13.763Z,20.70
2022-08-19T19:53:15.341Z,20.59
2022-08-19T20:03:20.483Z,20.41
2022-08-19T20:13:22.383Z,20.25
2022-08-19T20:23:24.074Z,20.16
2022-08-19T20:33:25.783Z,19.95
2022-08-19T20:43:27.479Z,19.78
2022-08-19T20:53:29.090Z,19.53
2022-08-19T21:03:32.577Z,19.48
2022-08-19T21:13:34.707Z,19.41
2022-08-19T21:23:36.392Z,19.33
2022-08-19T21:33:38.880Z,19.14
2022-08-19T21:43:40.571Z,18.96
2022-08-19T21:53:42.172Z,18.81
2022-08-19T22:03:45.327Z,18.68
2022-08-19T22:13:46.963Z,18.56
2022-08-19T22:23:48.565Z,18.55
2022-08-19T22:33:50.782Z,18.57
2022-08-19T22:43:52.411Z,18.71
2022-08-19T22:53:54.113Z,18.90
2022-08-19T23:03:56.633Z,19.06
2022-08-19T23:14:00.232Z,19.15
2022-08-19T23:24:02.447Z,19.05
2022-08-19T23:34:04.439Z,18.96
2022-08-19T23:44:14.792Z,18.98
2022-08-19T23:54:17.069Z,18.87
